createdAt,value
2018-11-22T00:02:24.232Z,71.95
2018-11-22T00:04:53.625Z,70.62
2018-11-22T00:07:23.410Z,71.97
2018-11-22T00:09:51.908Z,71.25
2018-11-22T00:12:21.046Z,72.11
2018-11-22T00:14:50.733Z,71.84
2018-11-22T00:17:20.191Z,72.35
2018-11-22T00:19:49.426Z,72.06
2018-11-22T00:22:19.659Z,71.43
2018-11-22T00:24:48.753Z,72.00
2018-11-22T00:27:17.592Z,71.71
2018-11-22T00:29:46.435Z,71.70
2018-11-22T00:32:15.307Z,71.33
2018-11-22T00:34:45.492Z,71.87
2018-11-22T00:37:14.121Z,71.10
2018-11-22T00:39:42.902Z,71.50
2018-11-22T00:42:11.729Z,71.72
2018-11-22T00:44:40.532Z,72.27
2018-11-22T00:47:15.709Z,71.64
2018-11-22T00:49:45.258Z,71.37
2018-11-22T00:52:14.008Z,72.22
2018-11-22T00:54:43.334Z,72.43
2018-11-22T00:57:11.611Z,71.87
2018-11-22T00:59:40.466Z,71.58
2018-11-22T01:02:08.744Z,72.50
2018-11-22T01:04:38.061Z,71.39
2018-11-22T01:07:07.196Z,71.54
2018-11-22T01:09:37.038Z,71.30
2018-11-22T01:12:06.092Z,72.19
2018-11-22T01:14:35.676Z,71.77
2018-11-22T01:17:05.090Z,72.43
2018-11-22T01:19:34.793Z,71.65
2018-11-22T01:22:03.270Z,72.15
2018-11-22T01:24:33.397Z,71.93
2018-11-22T01:27:02.600Z,72.96
2018-11-22T01:29:31.768Z,72.35
2018-11-22T01:32:00.637Z,72.13
2018-11-22T01:34:30.860Z,73.55
2018-11-22T01:37:00.942Z,73.75
2018-11-22T01:39:29.551Z,72.45
2018-11-22T01:41:58.393Z,71.53
2018-11-22T01:44:27.678Z,71.61
2018-11-22T01:46:57.015Z,72.21
2018-11-22T01:49:26.487Z,72.61
2018-11-22T01:51:56.184Z,72.22
2018-11-22T01:54:26.475Z,72.64
2018-11-22T01:57:06.026Z,72.48
2018-11-22T01:59:34.538Z,72.70
2018-11-22T02:02:03.094Z,72.59
2018-11-22T12:18:17.201Z,66.53
2018-11-22T12:20:45.426Z,66.57
2018-11-22T12:23:13.709Z,66.22
2018-11-22T12:25:41.930Z,65.88
2018-11-22T12:28:10.150Z,65.32
2018-11-22T12:30:38.370Z,65.03
2018-11-22T12:33:07.840Z,65.34
2018-11-22T12:35:41.527Z,66.27
2018-11-22T12:38:14.877Z,64.81
2018-11-22T12:40:43.088Z,65.33
2018-11-22T12:43:12.348Z,65.64
2018-11-22T12:45:40.561Z,64.95
2018-11-22T12:48:08.847Z,65.38
2018-11-22T12:50:37.104Z,65.53
2018-11-22T12:53:06.377Z,65.70
2018-11-22T12:55:34.617Z,64.92
2018-11-22T12:58:02.856Z,65.77
2018-11-22T13:00:31.114Z,65.85
2018-11-22T13:02:59.318Z,66.04
2018-11-22T13:05:27.580Z,65.22
2018-11-22T13:07:55.808Z,66.43
2018-11-22T13:10:24.059Z,66.82
2018-11-22T13:12:52.441Z,66.67
2018-11-22T13:15:21.638Z,66.66
2018-11-22T13:17:49.890Z,65.85
2018-11-22T13:20:19.413Z,66.08
2018-11-22T13:22:47.680Z,65.95
2018-11-22T13:25:21.398Z,65.51
2018-11-22T13:27:49.649Z,64.60
2018-11-22T13:30:22.556Z,64.68
2018-11-22T13:32:51.349Z,63.34
2018-11-22T13:35:20.108Z,63.53
2018-11-22T13:37:49.541Z,63.93
2018-11-22T13:40:17.931Z,63.57
2018-11-22T13:42:47.047Z,64.93
2018-11-22T13:45:18.656Z,64.82
2018-11-22T13:47:47.734Z,64.56
2018-11-22T13:50:19.677Z,66.05
2018-11-22T13:52:49.544Z,65.66
2018-11-22T13:55:17.836Z,66.21
2018-11-22T13:57:46.180Z,65.93
2018-11-22T14:00:17.831Z,65.44
2018-11-22T14:02:47.367Z,66.71
2018-11-22T14:05:15.682Z,65.77
2018-11-22T14:07:43.786Z,65.70
2018-11-22T14:10:15.470Z,66.51
2018-11-22T14:12:43.775Z,66.98
2018-11-22T14:15:20.311Z,66.26
2018-11-22T14:17:49.598Z,66.44
2018-11-22T14:20:19.322Z,66.80
2018-11-22T14:22:47.549Z,67.72
2018-11-22T14:25:18.115Z,67.44
2018-11-22T14:27:47.440Z,67.39
2018-11-22T14:30:16.973Z,67.86
2018-11-22T14:32:45.698Z,66.96
2018-11-22T14:35:15.110Z,68.02
2018-11-22T14:37:48.993Z,68.34
2018-11-22T14:40:18.734Z,68.53
2018-11-22T14:42:47.731Z,68.57
2018-11-22T14:45:16.419Z,68.89
2018-11-22T14:47:45.719Z,68.78
2018-11-22T14:50:15.704Z,68.49
2018-11-22T14:52:46.124Z,68.18
2018-11-22T14:55:14.384Z,68.27
2018-11-22T14:57:42.598Z,68.56
2018-11-22T15:00:12.887Z,67.77
2018-11-22T15:02:42.793Z,69.35
2018-11-22T15:05:11.943Z,68.91
2018-11-22T15:07:41.364Z,69.50
2018-11-22T15:10:13.114Z,69.57
2018-11-22T15:12:42.828Z,69.38
2018-11-22T15:15:15.916Z,69.89
2018-11-22T15:17:44.277Z,69.54
2018-11-22T15:20:13.899Z,70.04
2018-11-22T15:22:44.070Z,70.12
2018-11-22T15:25:14.766Z,69.86
2018-11-22T15:27:43.754Z,69.95
2018-11-22T15:30:14.583Z,69.53
2018-11-22T15:32:42.998Z,70.28
2018-11-22T15:35:13.119Z,70.68
2018-11-22T15:37:41.510Z,70.67
2018-11-22T15:40:13.289Z,71.26
2018-11-22T15:42:41.610Z,70.91
2018-11-22T15:45:12.426Z,71.42
2018-11-22T15:47:40.771Z,71.66
2018-11-22T15:50:11.231Z,71.62
2018-11-22T15:52:39.773Z,71.91
2018-11-22T15:55:08.475Z,71.92
2018-11-22T15:57:37.386Z,71.47
2018-11-22T16:00:10.178Z,71.20
2018-11-22T16:02:38.576Z,71.87
2018-11-22T16:05:08.068Z,71.58
2018-11-22T16:07:36.439Z,71.45
2018-11-22T16:10:06.547Z,71.01
2018-11-22T16:12:34.763Z,71.69
2018-11-22T16:15:02.985Z,71.94
2018-11-22T16:17:31.190Z,71.79
2018-11-22T16:19:59.419Z,72.38
2018-11-22T16:22:27.625Z,72.25
2018-11-22T16:24:55.857Z,73.31
2018-11-22T16:27:24.094Z,73.40
2018-11-22T16:29:52.330Z,73.97
2018-11-22T16:32:20.547Z,73.42
2018-11-22T16:34:50.782Z,74.69
2018-11-22T16:37:19.041Z,74.24
2018-11-22T16:39:47.847Z,75.12
2018-11-22T16:42:15.730Z,74.59
2018-11-22T16:44:43.963Z,74.87
2018-11-22T16:47:12.231Z,75.53
2018-11-22T16:49:40.462Z,74.93
2018-11-22T16:52:08.707Z,75.65
2018-11-22T16:54:36.966Z,75.55
2018-11-22T16:57:05.450Z,74.86
2018-11-22T16:59:33.928Z,75.45
2018-11-22T17:02:02.256Z,74.78
2018-11-22T17:04:30.490Z,75.33
2018-11-22T17:06:58.691Z,75.66
2018-11-22T17:09:26.931Z,75.81
2018-11-22T17:11:55.138Z,75.46
2018-11-22T17:14:23.380Z,74.70
2018-11-22T17:16:51.626Z,74.88
2018-11-22T17:19:19.859Z,74.52
2018-11-22T17:21:48.095Z,75.24
2018-11-22T17:24:16.338Z,74.25
2018-11-22T17:26:44.582Z,74.77
2018-11-22T17:29:12.841Z,75.09
2018-11-22T17:31:41.187Z,74.68
2018-11-22T17:34:11.468Z,75.42
2018-11-22T17:36:40.889Z,75.67
2018-11-22T17:39:12.904Z,76.40
2018-11-22T17:41:41.183Z,75.44
2018-11-22T17:44:09.534Z,75.55
2018-11-22T17:46:38.143Z,76.96
2018-11-22T17:49:06.923Z,76.58
2018-11-22T17:51:35.427Z,76.69
2018-11-22T17:54:05.695Z,76.41
2018-11-22T17:56:33.946Z,76.91
2018-11-22T17:59:02.179Z,76.83
2018-11-22T18:01:30.479Z,77.04
2018-11-22T18:03:58.695Z,77.18
2018-11-22T18:06:26.958Z,77.73
2018-11-22T18:08:55.215Z,78.39
2018-11-22T18:11:24.527Z,77.61
2018-11-22T18:13:52.758Z,78.19
2018-11-22T18:16:20.978Z,77.71
2018-11-22T18:18:49.228Z,78.26
2018-11-22T18:21:17.433Z,78.42
2018-11-22T18:23:45.704Z,78.15
2018-11-22T18:26:13.943Z,78.55
2018-11-22T18:28:42.155Z,77.70
2018-11-22T18:31:10.400Z,78.77
2018-11-22T18:33:39.356Z,78.22
2018-11-22T18:36:07.610Z,78.65
2018-11-22T18:38:36.908Z,78.45
2018-11-22T18:41:06.168Z,77.86
2018-11-22T18:43:35.416Z,78.61
2018-11-22T18:46:05.613Z,78.87
2018-11-22T18:48:37.139Z,79.21
2018-11-22T18:51:06.066Z,78.77
2018-11-22T18:53:34.335Z,79.34
2018-11-22T18:56:02.639Z,79.13
2018-11-22T18:58:30.880Z,79.30
2018-11-22T19:00:59.171Z,79.23
2018-11-22T19:03:27.437Z,78.59
2018-11-22T19:05:55.728Z,78.98
2018-11-22T19:08:23.987Z,79.02
2018-11-22T19:10:52.253Z,79.71
2018-11-22T19:13:20.490Z,79.57
2018-11-22T19:15:49.310Z,78.65
2018-11-22T19:18:17.814Z,79.28
2018-11-22T19:20:46.862Z,78.80
2018-11-22T19:23:15.913Z,78.86
2018-11-22T19:25:44.185Z,79.38
2018-11-22T19:28:13.501Z,78.35
2018-11-22T19:30:43.195Z,78.84
2018-11-22T19:33:13.591Z,78.39
2018-11-22T19:35:43.388Z,79.25
2018-11-22T19:38:11.690Z,79.00
2018-11-22T19:40:40.742Z,80.05
2018-11-22T19:43:09.871Z,79.24
2018-11-22T19:45:39.683Z,79.59
2018-11-22T19:48:10.682Z,79.27
2018-11-22T19:50:38.953Z,79.70
2018-11-22T19:53:08.810Z,79.36
2018-11-22T19:55:37.885Z,79.74
2018-11-22T19:58:07.638Z,80.65
2018-11-22T20:00:35.907Z,80.30
2018-11-22T20:03:05.330Z,80.04
2018-11-22T20:05:34.994Z,81.00
2018-11-22T20:08:05.955Z,81.23
2018-11-22T20:10:35.626Z,81.17
2018-11-22T20:13:04.037Z,81.37
2018-11-22T20:15:32.825Z,81.20
2018-11-22T20:18:02.136Z,81.83
2018-11-22T20:20:31.494Z,81.48
2018-11-22T20:22:59.714Z,82.08
2018-11-22T20:25:27.983Z,81.48
2018-11-22T20:27:57.014Z,81.98
2018-11-22T20:30:27.893Z,81.66
2018-11-22T20:32:56.131Z,81.85
2018-11-22T20:35:24.418Z,81.48
2018-11-22T20:37:53.941Z,81.86
2018-11-22T20:40:23.267Z,81.32
2018-11-22T20:42:51.505Z,81.90
2018-11-22T20:45:21.034Z,81.01
2018-11-22T20:47:50.865Z,80.45
2018-11-22T20:50:21.578Z,81.55
2018-11-22T20:52:49.808Z,81.56
2018-11-22T20:55:21.810Z,81.12
2018-11-22T20:57:51.339Z,80.35
2018-11-22T21:00:20.963Z,80.66
2018-11-22T21:02:50.283Z,80.86
2018-11-22T21:05:19.426Z,81.09
2018-11-22T21:07:47.654Z,81.26
2018-11-22T21:10:17.421Z,80.53
2018-11-22T21:12:45.667Z,80.51
2018-11-22T21:15:16.426Z,80.64
2018-11-22T21:17:45.418Z,81.73
2018-11-22T21:20:14.923Z,82.18
2018-11-22T21:22:43.172Z,81.43
2018-11-22T21:25:13.106Z,81.00
2018-11-22T21:27:41.370Z,81.37
2018-11-22T21:30:13.763Z,80.86
2018-11-22T21:32:42.134Z,79.83
2018-11-22T21:35:10.411Z,80.56
2018-11-22T21:37:38.639Z,80.98
2018-11-22T21:40:07.873Z,80.11
2018-11-22T21:42:36.163Z,79.96
2018-11-22T21:45:04.732Z,80.87
2018-11-22T21:47:32.985Z,80.59
2018-11-22T21:50:01.215Z,80.06
2018-11-22T21:52:29.433Z,79.91
2018-11-22T21:54:57.691Z,80.75
2018-11-22T21:57:25.932Z,79.83
2018-11-22T21:59:54.201Z,80.61
2018-11-22T22:02:22.427Z,80.40
2018-11-22T22:04:50.658Z,79.96
2018-11-22T22:07:18.882Z,81.02
2018-11-22T22:09:47.094Z,80.80
2018-11-22T22:12:15.395Z,81.70
2018-11-22T22:14:43.607Z,80.92
2018-11-22T22:17:12.932Z,81.74
2018-11-22T22:19:41.144Z,81.24
2018-11-22T22:22:09.438Z,81.01
2018-11-22T22:24:37.648Z,81.63
2018-11-22T22:27:06.152Z,81.29
2018-11-22T22:29:39.094Z,82.17
2018-11-22T22:32:07.371Z,81.73
2018-11-22T22:34:35.625Z,82.38
2018-11-22T22:37:03.854Z,81.83
2018-11-22T22:39:32.064Z,81.77
2018-11-22T22:42:00.282Z,82.96
2018-11-22T22:44:28.522Z,82.84
2018-11-22T22:46:56.735Z,82.98
2018-11-22T22:49:24.954Z,83.25
2018-11-22T22:51:53.187Z,83.12
2018-11-22T22:54:21.824Z,82.64
2018-11-22T22:56:50.053Z,82.79
2018-11-22T22:59:18.260Z,82.74
2018-11-22T23:01:46.498Z,83.57
2018-11-22T23:04:14.775Z,82.86
2018-11-22T23:06:43.001Z,82.47
2018-11-22T23:09:12.810Z,83.01
2018-11-22T23:11:41.067Z,83.24
2018-11-22T23:14:09.351Z,82.95
2018-11-22T23:16:37.602Z,82.68
2018-11-22T23:19:05.843Z,82.96
2018-11-22T23:21:34.074Z,83.11
2018-11-22T23:24:02.271Z,82.79
2018-11-22T23:26:30.487Z,83.36
2018-11-22T23:28:58.708Z,83.55
2018-11-22T23:31:26.967Z,82.85
2018-11-22T23:33:55.230Z,83.68
2018-11-22T23:36:23.455Z,83.03
2018-11-22T23:38:51.664Z,83.39
2018-11-22T23:41:19.853Z,83.63
2018-11-22T23:43:48.088Z,83.62
2018-11-22T23:46:16.299Z,83.09
2018-11-22T23:48:44.554Z,83.99
2018-11-22T23:51:12.771Z,84.20
2018-11-22T23:53:40.995Z,83.87
2018-11-22T23:56:09.221Z,83.93
2018-11-22T23:58:37.425Z,83.39
